Nibulon 1 — UUAS4 — position and weather

sailwx.info

Track history (hours):
 
Tides and Currents Weather Stations Pressure Air Temp Water Temp Dewpoint Dewpoint Depression Visibility Wind Speed Wind Dir Waves Ship Positions

Nibulon 1

Last reported at 2015-Jul-30 04:33 UTC. Time now 2015-Aug-03 15:13 UTC.
Position N 47°28' E 034°10'.

Length 38 m; draft 2.6 m.

Type: Tug. MMSI: 272641000.

Date/timePositionNaut miles runAvg speedWind from/ knotsBaromVisibWave heightAir tempDewpointWater temp
2015-Jul-30 04:33N 47°28' E 034°10'131 2.7
2015-Jul-28 04:32N 46°34' E 031°15'0 0.1
2015-Jul-28 03:13N 46°34' E 031°15'0 0.0
2015-Jul-27 23:28N 46°34' E 031°14'8 0.5
2015-Jul-27 07:26N 46°35' E 031°26'5 5.2
2015-Jul-27 06:32N 46°35' E 031°32'5 2.7
2015-Jul-27 04:33N 46°35' E 031°40'4 4.1
2015-Jul-27 03:33N 46°35' E 031°46'4 4.1
2015-Jul-27 02:33N 46°35' E 031°52'4 3.9
2015-Jul-27 01:33N 46°33' E 031°57'4 3.8
2015-Jul-27 00:33N 46°32' E 032°03'4 3.9
2015-Jul-26 23:33N 46°32' E 032°08'4 4.0
2015-Jul-26 22:33N 46°33' E 032°14'4 4.4
2015-Jul-26 21:34N 46°33' E 032°20'5 4.2
2015-Jul-26 20:27N 46°34' E 032°27'4 4.4
2015-Jul-26 19:33N 46°36' E 032°32'4 3.9
2015-Jul-26 18:33N 46°37' E 032°37'  
2015-Jul-24 12:21N 46°33' E 032°14'4 4.8
2015-Jul-24 11:32N 46°32' E 032°09'5 5.3
2015-Jul-24 10:33N 46°33' E 032°01'6 5.6
2015-Jul-24 09:33N 46°34' E 031°53'5 5.5
2015-Jul-24 08:33N 46°35' E 031°45'6 5.5
2015-Jul-24 07:33N 46°35' E 031°37'5 4.3
2015-Jul-24 06:24N 46°36' E 031°30'0 0.3
2015-Jul-24 05:15N 46°36' E 031°31'3 4.2
2015-Jul-24 04:33N 46°35' E 031°27'5 5.2
2015-Jul-24 03:33N 46°34' E 031°19'3 3.2
2015-Jul-24 02:33N 46°34' E 031°15'1 0.9
2015-Jul-24 01:34N 46°34' E 031°14'1 0.9
2015-Jul-24 00:29N 46°34' E 031°15'0 0.0
2015-Jul-23 23:32N 46°34' E 031°15'0 0.0
2015-Jul-23 22:32N 46°34' E 031°15'0 0.0
2015-Jul-23 21:32N 46°34' E 031°15'0 0.0
2015-Jul-23 20:29N 46°34' E 031°15'0 0.1
2015-Jul-23 19:33N 46°34' E 031°15'0 0.1
2015-Jul-23 18:31N 46°34' E 031°15'0 0.0
2015-Jul-23 17:28N 46°34' E 031°15'1 0.7
2015-Jul-23 16:28N 46°34' E 031°15'0 0.0
2015-Jul-23 15:31N 46°34' E 031°15'0 0.0
2015-Jul-23 14:28N 46°34' E 031°15'0 0.0
2015-Jul-23 11:22N 46°34' E 031°15'0 0.0
2015-Jul-23 10:31N 46°34' E 031°15'0 0.0
2015-Jul-23 09:33N 46°34' E 031°15'1 0.1
2015-Jul-23 04:08N 46°34' E 031°15'0 0.0
2015-Jul-23 03:33N 46°34' E 031°15'0 0.0
2015-Jul-23 02:33N 46°34' E 031°15'0 0.0
2015-Jul-23 01:33N 46°34' E 031°15'0 0.0
2015-Jul-23 00:33N 46°34' E 031°15'0 0.0
2015-Jul-22 23:34N 46°34' E 031°15'0 0.0
2015-Jul-22 22:33N 46°34' E 031°15'1 0.7
2015-Jul-22 21:34N 46°35' E 031°15'1 0.8
2015-Jul-22 20:33N 46°34' E 031°15'0 0.0
2015-Jul-22 19:33N 46°34' E 031°15'0 0.0
2015-Jul-22 18:33N 46°34' E 031°15'0 0.0
2015-Jul-22 17:34N 46°34' E 031°15'0 0.0
2015-Jul-22 16:33N 46°34' E 031°15'1 1.3
2015-Jul-22 15:31N 46°35' E 031°13'1 1.1
2015-Jul-22 14:19N 46°34' E 031°15'1 0.2
2015-Jul-22 10:31N 46°35' E 031°15'0 0.1
2015-Jul-22 06:32N 46°34' E 031°15'6 5.8
2015-Jul-22 05:33N 46°34' E 031°23'6 5.5
2015-Jul-22 04:32N 46°35' E 031°31'3 3.5
2015-Jul-22 03:34N 46°37' E 031°35'0 0.0
2015-Jul-22 01:33N 46°37' E 031°35'3 2.5
2015-Jul-22 00:31N 46°35' E 031°33'3 3.2
2015-Jul-21 23:33N 46°36' E 031°29'9 9.2
2015-Jul-21 22:33N 46°34' E 031°16'1 1.0
2015-Jul-21 21:29N 46°34' E 031°14'12 0.7
2015-Jul-21 04:31N 46°35' E 031°32'4 4.0
2015-Jul-21 03:33N 46°35' E 031°37'4 4.1
2015-Jul-21 02:33N 46°36' E 031°43'4 4.0
2015-Jul-21 01:33N 46°36' E 031°49'4 3.6
2015-Jul-21 00:33N 46°37' E 031°53'3 3.2
2015-Jul-20 23:33N 46°40' E 031°56'4 3.7
2015-Jul-20 22:33N 46°44' E 031°56'4 3.5
2015-Jul-20 21:33N 46°47' E 031°53'4 3.6
2015-Jul-20 20:33N 46°50' E 031°56'4 3.5
2015-Jul-20 19:33N 46°53' E 031°59'3 3.3
2015-Jul-20 18:33N 46°56' E 032°01'2 1.8
2015-Jul-20 17:33N 46°57' E 031°59'0 0.0
2015-Jul-20 16:33N 46°57' E 031°59'0 0.2
2015-Jul-20 15:33N 46°57' E 031°59'0 0.0
2015-Jul-20 14:33N 46°57' E 031°59'0 0.0
2015-Jul-20 13:33N 46°57' E 031°59'0 0.2
2015-Jul-20 12:33N 46°57' E 031°59'0 0.1
2015-Jul-20 11:33N 46°57' E 031°59'0 0.0
2015-Jul-20 10:33N 46°57' E 031°59'0 0.0
2015-Jul-20 09:33N 46°57' E 031°59'0 0.0
2015-Jul-20 08:33N 46°57' E 031°59'0 0.0
2015-Jul-20 07:33N 46°57' E 031°59'0 0.0
2015-Jul-20 06:33N 46°57' E 031°59'0 0.0
2015-Jul-20 05:33N 46°57' E 031°59'  
Track history (hours):
 
Tides and Currents Weather Stations Pressure Air Temp Water Temp Dewpoint Dewpoint Depression Visibility Wind Speed Wind Dir Waves Ship Positions

Nibulon 1

Last reported at 2015-Jul-30 04:33 UTC. Time now 2015-Aug-03 15:13 UTC.
Position N 47°28' E 034°10'.

Length 38 m; draft 2.6 m.

Type: Tug. MMSI: 272641000.

Date/timePositionNaut miles runAvg speedWind from/ knotsBaromVisibWave heightAir tempDewpointWater temp
2015-Jul-30 04:33N 47°28' E 034°10'131 2.7
2015-Jul-28 04:32N 46°34' E 031°15'0 0.1
2015-Jul-28 03:13N 46°34' E 031°15'0 0.0
2015-Jul-27 23:28N 46°34' E 031°14'8 0.5
2015-Jul-27 07:26N 46°35' E 031°26'5 5.2
2015-Jul-27 06:32N 46°35' E 031°32'5 2.7
2015-Jul-27 04:33N 46°35' E 031°40'4 4.1
2015-Jul-27 03:33N 46°35' E 031°46'4 4.1
2015-Jul-27 02:33N 46°35' E 031°52'4 3.9
2015-Jul-27 01:33N 46°33' E 031°57'4 3.8
2015-Jul-27 00:33N 46°32' E 032°03'4 3.9
2015-Jul-26 23:33N 46°32' E 032°08'4 4.0
2015-Jul-26 22:33N 46°33' E 032°14'4 4.4
2015-Jul-26 21:34N 46°33' E 032°20'5 4.2
2015-Jul-26 20:27N 46°34' E 032°27'4 4.4
2015-Jul-26 19:33N 46°36' E 032°32'4 3.9
2015-Jul-26 18:33N 46°37' E 032°37'  
2015-Jul-24 12:21N 46°33' E 032°14'4 4.8
2015-Jul-24 11:32N 46°32' E 032°09'5 5.3
2015-Jul-24 10:33N 46°33' E 032°01'6 5.6
2015-Jul-24 09:33N 46°34' E 031°53'5 5.5
2015-Jul-24 08:33N 46°35' E 031°45'6 5.5
2015-Jul-24 07:33N 46°35' E 031°37'5 4.3
2015-Jul-24 06:24N 46°36' E 031°30'0 0.3
2015-Jul-24 05:15N 46°36' E 031°31'3 4.2
2015-Jul-24 04:33N 46°35' E 031°27'5 5.2
2015-Jul-24 03:33N 46°34' E 031°19'3 3.2
2015-Jul-24 02:33N 46°34' E 031°15'1 0.9
2015-Jul-24 01:34N 46°34' E 031°14'1 0.9
2015-Jul-24 00:29N 46°34' E 031°15'0 0.0
2015-Jul-23 23:32N 46°34' E 031°15'0 0.0
2015-Jul-23 22:32N 46°34' E 031°15'0 0.0
2015-Jul-23 21:32N 46°34' E 031°15'0 0.0
2015-Jul-23 20:29N 46°34' E 031°15'0 0.1
2015-Jul-23 19:33N 46°34' E 031°15'0 0.1
2015-Jul-23 18:31N 46°34' E 031°15'0 0.0
2015-Jul-23 17:28N 46°34' E 031°15'1 0.7
2015-Jul-23 16:28N 46°34' E 031°15'0 0.0
2015-Jul-23 15:31N 46°34' E 031°15'0 0.0
2015-Jul-23 14:28N 46°34' E 031°15'0 0.0
2015-Jul-23 11:22N 46°34' E 031°15'0 0.0
2015-Jul-23 10:31N 46°34' E 031°15'0 0.0
2015-Jul-23 09:33N 46°34' E 031°15'1 0.1
2015-Jul-23 04:08N 46°34' E 031°15'0 0.0
2015-Jul-23 03:33N 46°34' E 031°15'0 0.0
2015-Jul-23 02:33N 46°34' E 031°15'0 0.0
2015-Jul-23 01:33N 46°34' E 031°15'0 0.0
2015-Jul-23 00:33N 46°34' E 031°15'0 0.0
2015-Jul-22 23:34N 46°34' E 031°15'0 0.0
2015-Jul-22 22:33N 46°34' E 031°15'1 0.7
2015-Jul-22 21:34N 46°35' E 031°15'1 0.8
2015-Jul-22 20:33N 46°34' E 031°15'0 0.0
2015-Jul-22 19:33N 46°34' E 031°15'0 0.0
2015-Jul-22 18:33N 46°34' E 031°15'0 0.0
2015-Jul-22 17:34N 46°34' E 031°15'0 0.0
2015-Jul-22 16:33N 46°34' E 031°15'1 1.3
2015-Jul-22 15:31N 46°35' E 031°13'1 1.1
2015-Jul-22 14:19N 46°34' E 031°15'1 0.2
2015-Jul-22 10:31N 46°35' E 031°15'0 0.1
2015-Jul-22 06:32N 46°34' E 031°15'6 5.8
2015-Jul-22 05:33N 46°34' E 031°23'6 5.5
2015-Jul-22 04:32N 46°35' E 031°31'3 3.5
2015-Jul-22 03:34N 46°37' E 031°35'0 0.0
2015-Jul-22 01:33N 46°37' E 031°35'3 2.5
2015-Jul-22 00:31N 46°35' E 031°33'3 3.2
2015-Jul-21 23:33N 46°36' E 031°29'9 9.2
2015-Jul-21 22:33N 46°34' E 031°16'1 1.0
2015-Jul-21 21:29N 46°34' E 031°14'12 0.7
2015-Jul-21 04:31N 46°35' E 031°32'4 4.0
2015-Jul-21 03:33N 46°35' E 031°37'4 4.1
2015-Jul-21 02:33N 46°36' E 031°43'4 4.0
2015-Jul-21 01:33N 46°36' E 031°49'4 3.6
2015-Jul-21 00:33N 46°37' E 031°53'3 3.2
2015-Jul-20 23:33N 46°40' E 031°56'4 3.7
2015-Jul-20 22:33N 46°44' E 031°56'4 3.5
2015-Jul-20 21:33N 46°47' E 031°53'4 3.6
2015-Jul-20 20:33N 46°50' E 031°56'4 3.5
2015-Jul-20 19:33N 46°53' E 031°59'3 3.3
2015-Jul-20 18:33N 46°56' E 032°01'2 1.8
2015-Jul-20 17:33N 46°57' E 031°59'0 0.0
2015-Jul-20 16:33N 46°57' E 031°59'0 0.2
2015-Jul-20 15:33N 46°57' E 031°59'0 0.0
2015-Jul-20 14:33N 46°57' E 031°59'0 0.0
2015-Jul-20 13:33N 46°57' E 031°59'0 0.2
2015-Jul-20 12:33N 46°57' E 031°59'0 0.1
2015-Jul-20 11:33N 46°57' E 031°59'0 0.0
2015-Jul-20 10:33N 46°57' E 031°59'0 0.0
2015-Jul-20 09:33N 46°57' E 031°59'0 0.0
2015-Jul-20 08:33N 46°57' E 031°59'0 0.0
2015-Jul-20 07:33N 46°57' E 031°59'0 0.0
2015-Jul-20 06:33N 46°57' E 031°59'0 0.0
2015-Jul-20 05:33N 46°57' E 031°59'  

Dump ship's entire track history